My webcam Meer informatie My webcam


Onweer radar Meer informatie blitzortung!


Regen radar Meer informatie rain snow radar


Bezoek ook deze websites:

Template documentation
and downloads

And another site

Leuven-Template Forum

support.leuven-template



Het weer levert geen direct gevaar op.    Er zijn geen waarschuwingen afgegeven.

METAR rapporten vliegvelden

   
EHVK - Volkel Rnlafb, Netherlands
Afstand tot: ZW 18 km
Gewijzigd: 13-12-2019 14:55
Wat regen mogelijk, Bewolking  
Wat regen mogelijk, Bewolking  
   Wind: WNW 9.3 km/h
Wind: WNW 9.3 km/h
Temperatuur: 4°C
Voelt als: 2°C
Dauwpunt: 4°C
Vochtigheid: 100%
Barometer: 978 hPa
Bewolking: Bewolking
Zicht: 4 km
Bewolking: Grotendeels bewolkt 300 ft,
Bewolking 400 ft
EHVK 131355Z AUTO 30005KT 270V330 4100 -RA BKN003 OVC004 04/04 Q0978 RERA REDZ YLO 29008KT 9000 SCT005 BKN010 BKN015 TEMPO 2000 DZRA SCT003 BKN004 OVC010
EDLV - Niederrhein, Germany
Afstand tot: ZO 25 km
Gewijzigd: 13-12-2019 14:50
Wat regen mogelijk, Nevel, Grotendeels bewolkt  
Wat regen mogelijk, Nevel, Grotendeels bewolkt  
   Wind: NW 13 km/h
Wind: NW 13 km/h
Temperatuur: 5°C
Voelt als: 2°C
Dauwpunt: 4°C
Vochtigheid: 93%
Barometer: 977 hPa
Bewolking: Grotendeels bewolkt
Zicht: 3 km
Bewolking: Grotendeels bewolkt 200 ft
EDLV 131350Z 31007KT 280V340 3300 -RA BR BKN002 05/04 Q0977
EHDL - Deelen Rnlafb, Netherlands
Afstand tot: N 35 km
Gewijzigd: 13-12-2019 14:55
Wat regen mogelijk, Grotendeels bewolkt  
Wat regen mogelijk, Grotendeels bewolkt  
   Wind: WNW 9.3 km/h
Wind: WNW 9.3 km/h
Temperatuur: 4°C
Voelt als: 2°C
Dauwpunt: 4°C
Vochtigheid: 100%
Barometer: 978 hPa
Bewolking: Grotendeels bewolkt
Zicht: 5 km
Bewolking: Licht bewolkt 400 ft,
Gedeeltelijk bewolkt 1000 ft,
Grotendeels bewolkt 1200 ft,
Licht bewolkt 1500 ft
EHDL 131355Z AUTO 30005KT 270V360 5000 -RA FEW004 SCT010 BKN012 FEW015CB 04/04 Q0978 GRN
EHEH - Eindhoven Rnlafb, Netherlands
Afstand tot: ZW 48 km
Gewijzigd: 13-12-2019 15:11
Motregen, Grotendeels bewolkt  
Motregen, Grotendeels bewolkt  
   Wind: WNW 14.8 km/h
Wind: WNW 14.8 km/h
Temperatuur: 5°C
Voelt als: 2°C
Dauwpunt: 4°C
Vochtigheid: 93%
Barometer: 979 hPa
Bewolking: Grotendeels bewolkt
Zicht: 7 km
Bewolking: Licht bewolkt 500 ft,
Grotendeels bewolkt 600 ft,
Grotendeels bewolkt 700 ft
EHEH 131411Z AUTO 29008KT 240V340 7000 DZ FEW005 BKN006 BKN007 05/04 Q0979 YLO 30010KT 9999 BKN006 BKN008 TEMPO 2000 DZRA FEW002 SCT003 BKN004
EHGR - Gilze-Rijen Rnla, Netherlands
Afstand tot: WZW 70 km
Gewijzigd: 13-12-2019 15:07
Wat regen mogelijk, Grotendeels bewolkt  
Wat regen mogelijk, Grotendeels bewolkt  
   Wind: Westen 13 km/h
Wind: Westen 13 km/h
Temperatuur: 6°C
Voelt als: 3°C
Dauwpunt: 5°C
Vochtigheid: 93%
Barometer: 979 hPa
Bewolking: Grotendeels bewolkt
Zicht: 6 km
Bewolking: Licht bewolkt 500 ft,
Grotendeels bewolkt 700 ft,
Grotendeels bewolkt 900 ft
EHGR 131407Z AUTO 28007KT 6000 -RA FEW005 BKN007 BKN009 06/05 Q0979 GRN
EBBL - Kleine-Brogel(Ba, Belgium
Afstand tot: ZZW 71 km
Gewijzigd: 13-12-2019 14:55
Wat regen mogelijk, Grotendeels bewolkt  
Wat regen mogelijk, Grotendeels bewolkt  
   Wind: Westen 14.8 km/h
Wind: Westen 14.8 km/h
Temperatuur: 5°C
Voelt als: 2°C
Dauwpunt: 4°C
Vochtigheid: 93%
Barometer: 979 hPa
Bewolking: Grotendeels bewolkt
Zicht: 3 km
Bewolking: Gedeeltelijk bewolkt 700 ft,
Gedeeltelijk bewolkt 1000 ft,
Grotendeels bewolkt 1700 ft
EBBL 131355Z 28008KT 3000 -RA SCT007 SCT010 BKN017 05/04 Q0979 YLO GRN TEMPO YLO

Script ontwikkeld door  Saratoga-weather.org Aangepast voor de template door  Weerstation Leuven

U vindt ons ook hier:

Het Weer Aktueel

European Weather Network

WeatherCloud

Weather Underground

Benelux Weer Netwerk

AWEKAS

Apparatuur in gebruik:

Weerstation
Davis VP2

Weerprogramma
Meteobridge

Weercomputer
My Computer

Webleverancier
My provider

Davis VP2

Meteobridge

My Computer

My provider